Date,TemperatureHighF,TemperatureAvgF,TemperatureLowF,DewpointHighF,DewpointAvgF,DewpointLowF,HumidityHigh,HumidityAvg,HumidityLow,PressureMaxIn,PressureMinIn,WindSpeedMaxMPH,WindSpeedAvgMPH,GustSpeedMaxMPH,PrecipitationSumIn
2013-1-1,78,74,70,62,59,56,69,60,55,30.24,30.06,17,6,17,0.00
2013-1-2,79,73,67,67,63,58,79,72,67,30.15,30.03,10,3,10,0.00
2013-1-3,82,74,69,70,67,65,86,77,66,30.15,30.06,12,4,12,0.00
2013-1-4,80,74,68,72,68,65,91,84,75,30.27,30.12,10,4,10,0.00
2013-1-5,77,71,68,71,68,66,94,90,81,30.27,30.18,12,4,12,0.11
2013-1-6,82,76,69,73,70,66,91,82,73,30.21,30.09,13,6,13,0.00
2013-1-7,74,72,70,70,69,67,92,89,83,30.21,30.09,12,5,12,0.41
2013-1-8,81,77,74,73,71,70,89,82,74,30.24,30.09,17,7,17,0.03
2013-1-9,82,78,76,72,70,68,86,78,71,30.33,30.18,57,9,58,0.00
2013-1-10,80,77,75,69,66,64,77,68,59,30.33,30.18,17,9,17,0.00
2013-1-11,80,77,75,69,67,64,76,71,65,30.27,30.18,17,8,17,0.01
2013-1-12,81,77,74,68,66,63,79,70,62,30.24,30.12,16,6,16,0.03
2013-1-13,81,76,74,67,64,62,74,67,60,30.15,30.09,17,8,17,0.00
2013-1-14,81,76,74,65,63,60,68,63,56,30.24,30.12,15,7,15,0.00
2013-1-15,80,77,75,67,64,61,75,66,60,30.18,30.06,13,6,13,0.00
2013-1-16,82,77,72,69,65,60,72,67,61,30.15,30.03,13,6,13,0.03
2013-1-17,78,72,63,70,65,53,84,78,72,30.12,30.00,25,6,25,0.74
2013-1-18,70,64,54,59,52,44,72,65,56,30.27,30.12,18,9,18,0.00
2013-1-19,72,70,67,67,63,56,94,79,60,30.24,30.12,13,5,13,0.28
2013-1-20,77,71,66,71,67,65,97,87,75,30.18,30.06,12,4,12,0.04
2013-1-21,80,74,68,71,67,63,87,80,73,30.09,30.00,13,5,13,0.05
2013-1-22,74,69,64,64,58,50,92,71,49,30.24,30.00,18,9,18,0.00
2013-1-23,74,69,64,55,51,48,67,53,45,30.33,30.18,15,7,15,0.00
2013-1-24,74,67,62,53,50,45,71,55,42,30.33,30.21,10,6,10,0.00
2013-1-25,77,69,62,58,52,46,64,56,47,30.33,30.18,12,4,12,0.00
2013-1-26,77,70,62,58,56,51,74,60,50,30.27,30.18,10,5,10,0.00
2013-1-27,79,74,68,61,58,55,69,59,46,30.33,30.18,15,6,15,0.00
2013-1-28,81,76,73,65,62,59,70,62,53,30.36,30.24,17,8,17,0.00
2013-1-29,80,76,74,68,65,16,74,69,64,30.30,30.15,15,8,15,0.01
2013-1-30,81,76,73,68,64,62,73,68,63,30.15,30.00,20,9,20,0.03
2013-1-31,75,68,61,69,57,38,86,68,42,30.21,29.94,17,7,17,0.05
2013-2-1,72,64,56,53,45,36,57,50,42,30.30,30.18,17,8,17,0.02
2013-2-2,76,66,58,51,45,33,59,46,38,30.30,30.12,12,5,12,0.01
2013-2-3,72,66,59,52,45,38,68,49,33,30.21,30.06,13,4,13,0.01
2013-2-4,75,65,54,52,44,35,64,48,38,30.18,30.06,9,4,9,0.00
2013-2-5,78,70,61,61,56,48,70,62,51,30.12,30.03,11,4,11,0.00
2013-2-6,79,72,66,66,61,58,83,70,56,30.15,30.06,12,4,12,0.00
2013-2-7,83,76,73,67,63,60,68,63,58,30.12,29.97,13,6,13,0.00
2013-2-8,82,75,71,68,65,60,87,72,57,30.06,29.94,16,6,16,0.00
2013-2-9,78,73,70,68,63,58,84,72,61,30.21,30.03,17,7,17,0.16
2013-2-10,76,73,72,62,60,56,68,63,57,30.30,30.18,22,10,22,0.00
2013-2-11,81,75,72,65,62,59,67,63,55,30.27,30.12,17,9,17,0.00
2013-2-12,83,76,72,69,65,62,78,69,63,30.18,30.00,16,7,16,0.00
2013-2-13,82,77,73,73,69,66,81,77,72,30.06,29.94,20,7,20,0.00
2013-2-14,79,72,65,72,68,63,93,86,78,30.03,29.88,25,6,25,1.13
2013-2-15,73,68,66,68,65,63,95,91,81,30.06,29.94,13,5,13,0.57
2013-2-16,71,66,57,64,55,41,95,72,37,30.09,29.88,28,11,28,0.00
2013-2-17,61,53,47,41,27,17,57,38,25,30.33,30.09,22,10,22,0.01
2013-2-18,69,60,49,54,41,29,62,50,45,30.36,30.21,17,9,17,0.00
2013-2-19,80,72,68,64,58,50,78,61,52,30.24,30.12,19,8,19,0.02
2013-2-20,78,72,67,67,64,61,89,75,65,30.15,30.06,12,4,12,0.00
2013-2-21,83,76,72,69,65,62,75,68,60,30.15,30.00,12,6,12,0.00
2013-2-22,84,78,74,72,69,64,81,74,65,30.15,30.03,15,9,15,0.00
2013-2-23,84,78,75,73,70,67,82,75,68,30.09,29.94,20,9,20,0.00
2013-2-24,86,78,73,76,72,68,92,81,69,30.06,29.94,13,4,13,0.00
2013-2-25,83,78,73,74,70,67,84,78,71,29.94,29.83,16,6,16,0.00
2013-2-26,83,79,76,74,71,68,81,76,67,29.94,29.83,18,8,19,0.00
2013-2-27,78,71,66,72,65,60,92,81,63,30.00,29.88,13,5,13,0.37
2013-2-28,70,65,61,64,52,45,93,64,42,30.06,29.94,15,6,15,0.00
2013-3-1,65,63,59,55,48,42,71,58,46,30.03,29.91,13,7,13,0.00
2013-3-2,64,59,55,46,37,32,62,45,35,30.06,29.94,26,10,26,0.00
2013-3-3,61,55,52,43,38,34,69,52,39,30.18,29.97,21,8,21,0.14
2013-3-4,67,56,45,40,34,30,60,46,31,30.27,30.12,20,7,20,0.07
2013-3-5,76,65,54,56,50,39,68,58,47,30.21,30.12,13,5,13,0.00
2013-3-6,77,66,55,61,48,26,82,56,24,30.12,29.94,21,9,21,0.02
2013-3-7,74,61,50,50,40,31,68,48,34,30.21,30.09,18,7,18,0.00
2013-3-8,74,65,57,50,48,46,71,56,42,30.21,30.12,11,5,11,0.00
2013-3-9,72,64,59,56,49,45,70,59,48,30.21,30.09,13,6,13,0.00
2013-3-10,77,72,68,58,52,49,64,51,44,30.18,30.09,16,9,16,0.00
2013-3-11,80,74,70,60,58,56,65,57,49,30.15,30.00,21,9,21,0.00
2013-3-12,80,75,72,68,63,58,73,67,60,30.03,29.94,18,9,18,0.00
2013-3-13,73,67,59,64,55,46,83,65,41,30.15,30.00,15,8,15,0.00
2013-3-14,69,63,57,50,44,38,70,52,35,30.24,30.09,19,8,19,0.18
2013-3-15,74,64,56,53,46,40,66,52,41,30.27,30.18,13,6,13,0.00
2013-3-16,79,69,60,54,51,49,72,55,41,30.24,30.12,13,4,13,0.00
2013-3-17,78,71,65,58,55,50,67,56,48,30.18,30.06,15,5,15,0.00
2013-3-18,81,74,69,68,63,57,83,68,58,30.12,30.00,20,7,20,0.09
2013-3-19,80,74,71,69,67,64,88,78,65,30.03,29.85,18,4,19,0.00
2013-3-20,82,74,67,71,66,53,90,77,47,30.03,29.83,20,4,20,0.02
2013-3-21,76,69,64,61,54,47,87,61,40,29.97,29.83,15,6,15,0.00
2013-3-22,77,71,63,66,56,49,74,61,52,30.03,29.91,15,5,15,0.04
2013-3-23,86,79,73,75,71,66,86,77,66,30.03,29.83,20,6,20,0.02
2013-3-24,88,80,76,72,69,64,87,70,45,29.94,29.74,26,9,26,0.17
2013-3-25,78,74,67,72,57,35,90,60,27,30.03,29.77,18,8,18,0.14
2013-3-26,68,62,55,38,33,28,41,34,25,30.24,30.00,22,12,22,0.00
2013-3-27,70,59,49,44,37,29,50,44,38,30.30,30.18,16,8,16,0.00
2013-3-28,73,64,54,47,41,31,57,44,26,30.30,30.18,12,6,12,0.00
2013-3-29,76,68,59,49,45,38,53,44,37,30.33,30.21,13,6,13,0.01
2013-3-30,81,72,67,52,48,45,48,43,33,30.30,30.18,115,6,115,0.00
2013-3-31,84,75,70,64,58,49,64,54,46,30.24,30.06,17,8,17,0.00
2013-4-1,83,77,73,69,64,59,74,65,47,30.09,29.97,20,7,20,0.00
2013-4-2,84,75,67,68,64,61,92,71,52,30.12,30.00,12,6,12,0.00
2013-4-3,87,79,74,70,66,64,72,66,52,30.12,30.03,14,7,14,0.00
2013-4-4,85,77,71,73,68,62,86,74,66,30.09,29.94,19,8,19,0.81
2013-4-5,75,70,67,70,66,63,93,86,78,30.03,29.85,21,6,21,1.05
2013-4-6,78,70,61,66,61,56,93,75,52,30.12,29.94,15,8,15,0.00
2013-4-7,80,74,72,63,61,58,69,62,50,30.18,30.06,17,8,17,0.00
2013-4-8,86,77,72,62,58,56,60,53,42,30.18,30.06,10,5,11,0.01
2013-4-9,85,78,75,67,64,26,69,62,16,30.21,30.06,13,7,13,0.01
2013-4-10,86,79,75,72,68,63,76,68,62,30.15,30.03,19,7,19,0.01
2013-4-11,87,80,76,73,71,69,80,74,64,30.06,29.94,20,10,20,0.00
2013-4-12,87,81,78,77,73,71,82,78,71,30.00,29.91,18,9,18,0.05
2013-4-13,82,78,75,74,72,69,87,81,75,30.03,29.88,15,4,15,0.11
2013-4-14,90,81,75,78,74,70,90,80,64,30.00,29.94,13,5,13,0.00
2013-4-15,89,80,73,79,73,66,88,80,68,30.09,29.94,14,4,14,0.33
2013-4-16,87,80,74,77,73,69,92,81,66,30.15,30.06,13,5,13,0.01
2013-4-17,86,80,76,70,68,64,79,67,52,30.15,30.06,58,6,58,0.00
2013-4-18,90,82,77,73,69,66,76,66,53,30.09,30.00,17,8,17,0.00
2013-4-19,90,83,79,74,71,69,77,68,57,30.09,30.00,20,9,20,0.00
2013-4-20,89,80,75,77,73,68,88,78,66,30.12,29.97,17,6,17,0.76
2013-4-21,86,79,73,74,72,68,92,79,65,30.15,30.00,15,5,15,0.00
2013-4-22,86,76,72,72,69,66,88,79,63,30.09,29.94,16,5,16,1.27
2013-4-23,83,76,69,69,65,58,92,70,49,30.12,29.94,15,8,15,0.00
2013-4-24,88,79,74,64,60,58,63,53,41,30.18,30.06,14,7,14,0.01
2013-4-25,85,79,74,60,58,55,58,50,40,30.24,30.09,12,6,12,0.00
2013-4-26,84,78,74,63,60,56,60,55,48,30.27,30.12,13,7,13,0.13
2013-4-27,86,79,75,64,61,57,62,54,45,30.24,30.12,17,9,17,0.00
2013-4-28,87,79,75,63,60,57,64,53,40,30.15,30.00,15,8,15,0.00
2013-4-29,85,80,76,68,64,45,70,60,32,30.09,29.94,15,9,15,0.00
2013-4-30,84,79,76,71,68,65,73,68,63,30.03,29.94,15,5,15,0.03
2013-5-1,86,79,73,72,69,66,83,72,62,30.03,29.94,15,4,15,0.22
2013-5-2,78,74,69,71,69,65,92,83,73,29.97,29.83,26,9,26,1.62
2013-5-3,86,75,69,72,69,66,95,81,63,29.85,29.71,16,6,17,0.50
2013-5-4,87,77,69,70,66,61,94,73,44,29.83,29.71,15,7,15,0.01
2013-5-5,83,74,70,67,60,47,90,63,32,29.97,29.80,17,8,17,0.00
2013-5-6,84,74,64,63,58,48,75,58,43,30.03,29.94,12,5,12,0.09
2013-5-7,84,73,65,65,58,53,75,60,43,30.09,30.00,15,6,15,0.01
2013-5-8,89,75,66,64,60,55,79,61,42,30.18,30.06,9,4,9,0.07
2013-5-9,89,79,69,72,65,56,70,63,54,30.18,30.09,11,5,11,0.00
2013-5-10,90,83,77,73,70,67,72,65,53,30.18,30.06,58,6,58,0.00
2013-5-11,90,82,78,75,72,65,85,71,60,30.12,30.03,18,6,18,0.00
2013-5-12,90,81,74,75,71,64,84,72,59,30.12,29.97,25,5,25,0.71
2013-5-13,86,78,73,72,69,64,92,74,51,30.12,30.00,15,5,15,0.00
2013-5-14,84,79,75,65,57,51,64,49,34,30.21,30.06,14,8,14,0.00
2013-5-15,87,79,75,60,56,52,53,45,39,30.24,30.12,15,8,15,0.00
2013-5-16,89,80,74,61,57,52,52,46,38,30.15,30.06,15,6,15,0.00
2013-5-17,91,82,77,72,66,58,76,60,50,30.15,30.03,14,6,14,0.34
2013-5-18,89,82,78,73,70,67,79,67,55,30.15,30.06,15,6,15,0.53
2013-5-19,91,82,78,71,67,63,68,60,47,30.15,30.03,13,6,13,0.04
2013-5-20,82,78,73,73,70,67,90,76,66,30.12,30.00,15,7,15,3.02
2013-5-21,85,78,73,74,71,68,91,78,63,30.09,29.94,17,6,17,0.05
2013-5-22,85,78,75,75,71,68,86,78,68,30.03,29.94,20,5,20,0.75
2013-5-23,93,82,75,75,72,63,91,71,41,30.06,29.94,13,6,13,0.01
2013-5-24,92,84,78,75,73,70,90,71,55,30.09,29.94,12,5,12,0.00
2013-5-25,88,82,77,72,66,60,78,58,42,30.21,30.06,15,7,15,0.02
2013-5-26,87,81,77,66,62,55,65,52,44,30.21,30.12,15,8,15,0.00
2013-5-27,88,81,77,72,68,60,78,64,53,30.18,30.09,18,10,19,0.25
2013-5-28,85,80,78,73,72,70,82,76,66,30.18,30.06,58,10,58,0.05
2013-5-29,80,77,74,74,71,68,90,82,72,30.15,30.06,28,11,28,2.74
2013-5-30,84,79,75,74,72,69,86,78,66,30.12,30.03,27,12,27,0.04
2013-5-31,84,80,77,75,73,71,87,80,73,30.09,30.03,18,9,18,0.08
2013-6-1,85,79,76,77,74,73,92,86,75,30.06,29.97,17,5,17,0.29
2013-6-2,89,80,74,79,74,70,95,83,67,30.03,29.94,12,3,12,0.07
2013-6-3,90,82,76,77,74,71,88,78,62,30.06,29.94,14,3,14,0.08
2013-6-4,86,80,76,77,74,71,91,81,64,30.09,29.97,13,3,13,0.14
2013-6-5,85,82,80,77,76,74,86,81,76,30.06,29.94,13,6,13,0.01
2013-6-6,88,81,78,80,76,72,90,84,76,29.94,29.83,24,10,24,0.44
2013-6-7,87,78,75,79,73,70,96,83,69,30.03,29.85,21,6,21,0.36
2013-6-8,88,80,76,81,76,72,93,86,76,30.15,30.00,15,4,15,0.02
2013-6-9,90,84,80,88,74,72,96,74,59,30.15,30.06,15,7,15,0.02
2013-6-10,94,86,81,77,75,71,82,70,51,30.15,30.03,115,7,115,0.00
2013-6-11,88,84,34,77,75,28,82,75,63,30.15,30.03,15,5,15,0.13
2013-6-12,87,82,80,78,76,74,89,81,71,30.12,30.03,10,2,10,0.00
2013-6-13,91,83,77,78,74,70,93,76,57,30.09,29.94,12,3,12,0.00
2013-6-14,92,83,77,75,72,68,86,70,52,30.03,29.91,15,5,15,0.00
2013-6-15,95,84,77,77,74,52,89,72,51,30.09,29.94,9,4,9,0.00
2013-6-16,96,87,80,78,74,71,82,67,54,30.15,30.03,12,4,12,0.00
2013-6-17,95,88,83,76,73,71,71,63,52,30.15,30.03,13,6,13,0.00
2013-6-18,96,88,83,77,73,71,70,63,50,30.12,30.03,13,6,13,0.00
2013-6-19,95,87,82,77,74,71,78,66,53,30.09,30.00,13,5,13,0.00
2013-6-20,94,84,76,76,72,65,80,68,54,30.12,30.06,20,4,20,0.88
2013-6-21,96,87,82,74,72,69,71,62,47,30.18,30.06,13,6,13,0.01
2013-6-22,94,87,82,74,72,69,71,61,46,30.15,30.06,57,6,58,0.00
2013-6-23,94,86,82,75,72,70,70,63,50,30.18,30.06,14,7,14,0.00
2013-6-24,93,86,82,75,72,70,71,63,49,30.21,30.09,14,7,14,0.04
2013-6-25,91,86,82,76,73,70,72,67,58,30.18,30.06,15,7,15,0.00
2013-6-26,93,85,81,76,74,72,77,68,56,30.12,30.03,14,7,14,0.33
2013-6-27,90,85,81,76,74,71,81,70,62,30.09,29.97,10,4,10,0.26
2013-6-28,94,83,78,78,74,67,85,73,58,30.03,29.88,13,4,13,0.16
2013-6-29,92,82,77,79,74,69,86,77,59,29.97,29.85,18,4,18,0.17
2013-6-30,90,83,79,77,73,71,82,72,64,29.97,29.88,18,7,19,0.00
2013-7-1,89,84,79,78,74,71,83,73,67,30.09,29.94,18,7,18,0.11
2013-7-2,93,85,81,80,76,73,85,76,65,30.15,30.00,14,6,14,0.00
2013-7-3,91,84,80,79,75,72,80,75,68,30.15,30.06,19,8,19,0.30
2013-7-4,91,85,81,77,74,71,79,71,62,30.21,30.09,17,8,17,0.00
2013-7-5,86,82,80,77,75,72,83,77,70,30.18,30.06,20,8,20,0.54
2013-7-6,90,84,81,77,74,72,80,72,63,30.18,30.06,15,8,15,0.07
2013-7-7,91,85,81,76,74,72,78,69,57,30.15,30.06,15,7,15,0.00
2013-7-8,93,86,82,75,72,70,70,63,51,30.18,30.09,13,6,13,0.00
2013-7-9,91,84,78,74,71,67,73,64,53,30.18,30.06,14,5,14,0.01
2013-7-10,89,81,74,76,72,67,88,74,63,30.12,30.03,11,4,11,1.18
2013-7-11,93,85,81,77,74,71,78,70,58,30.09,29.97,13,5,13,1.18
2013-7-12,92,83,80,77,73,67,85,73,58,30.03,29.94,13,3,13,0.00
2013-7-13,86,78,74,76,72,68,92,83,68,30.06,29.94,12,3,12,1.19
2013-7-14,90,80,74,76,73,70,91,80,62,30.12,30.03,15,6,15,0.36
2013-7-15,90,82,76,78,74,70,92,77,58,30.12,30.06,15,4,15,0.37
2013-7-16,85,80,76,73,71,68,86,75,64,30.18,30.06,26,9,26,0.36
2013-7-17,82,79,76,75,72,71,88,82,76,30.18,30.06,17,6,17,0.59
2013-7-18,84,78,74,78,74,69,91,87,77,30.18,30.06,17,4,17,0.72
2013-7-19,88,82,76,79,76,63,94,83,73,30.18,30.06,13,5,15,0.00
2013-7-20,88,84,80,79,77,72,87,80,72,30.15,30.06,17,6,17,0.00
2013-7-21,91,83,79,80,76,72,88,80,70,30.18,30.06,11,3,11,0.00
2013-7-22,94,86,81,78,76,72,84,72,58,30.18,30.09,13,6,13,0.00
2013-7-23,94,86,80,79,75,71,86,71,59,30.15,30.00,14,5,14,0.00
2013-7-24,93,85,79,78,73,65,87,70,49,30.06,29.94,14,5,14,0.00
2013-7-25,93,85,78,75,72,68,83,66,46,30.06,29.94,15,5,15,0.00
2013-7-26,92,83,80,76,74,70,86,74,51,30.06,29.94,18,5,18,0.41
2013-7-27,86,80,77,78,75,73,91,85,75,30.03,29.94,13,2,13,0.14
2013-7-28,87,81,76,79,75,72,91,84,75,30.09,29.97,9,1,9,0.24
2013-7-29,92,85,78,80,76,73,87,76,63,30.18,30.06,12,3,12,0.00
2013-7-30,94,86,79,79,76,71,85,73,58,30.21,30.12,15,4,15,0.39
2013-7-31,94,87,83,77,75,70,77,67,55,30.18,30.03,10,4,10,0.00
2013-8-1,91,85,83,74,72,71,69,66,55,30.09,29.97,115,5,115,0.00
2013-8-2,88,83,78,75,72,69,83,71,65,30.09,29.94,10,3,10,0.59
2013-8-3,86,79,75,77,74,69,90,84,71,30.21,30.03,21,2,21,0.43
2013-8-4,94,82,76,80,75,70,92,80,60,30.15,30.00,13,2,13,0.14
2013-8-5,88,82,78,80,76,72,92,82,70,30.09,29.97,11,2,11,0.21
2013-8-6,93,83,77,80,75,70,91,78,63,30.03,29.94,9,1,9,0.00
2013-8-7,92,85,34,77,75,23,80,72,60,30.03,29.94,13,4,13,0.01
2013-8-8,93,87,83,77,75,72,77,68,56,30.06,29.94,14,5,14,0.02
2013-8-9,89,85,83,76,73,69,73,67,55,30.09,29.97,115,5,115,0.00
2013-8-10,94,87,82,78,75,72,78,68,53,30.15,30.06,13,4,13,0.00
2013-8-11,94,88,83,78,75,71,77,66,52,30.18,30.09,10,4,10,0.00
2013-8-12,92,87,83,75,73,70,69,63,54,30.15,30.03,8,3,8,0.00
2013-8-13,95,88,83,76,74,71,73,64,50,30.09,29.97,9,4,9,0.00
2013-8-14,95,87,83,76,73,70,69,62,51,30.06,29.94,57,3,58,0.01
2013-8-15,87,83,78,76,74,70,85,73,65,30.09,30.00,14,2,14,0.78
2013-8-16,94,87,81,79,77,75,87,73,60,30.09,30.00,8,2,15,0.00
2013-8-17,94,88,84,79,77,74,77,70,59,30.12,30.03,12,4,12,0.00
2013-8-18,92,87,84,79,76,74,76,70,62,30.12,30.00,15,4,15,0.06
2013-8-19,94,88,84,82,76,73,96,70,58,30.09,30.00,57,4,58,0.00
2013-8-20,93,87,82,77,75,72,75,67,58,30.12,30.00,13,3,13,0.00
2013-8-21,91,86,83,80,76,73,81,74,66,30.12,30.00,13,5,13,0.13
2013-8-22,93,88,82,79,76,73,80,70,58,30.12,30.00,58,4,58,0.00
2013-8-23,92,87,83,78,75,72,75,68,61,30.03,29.97,12,2,12,0.00
2013-8-24,94,87,81,77,74,69,77,67,53,30.18,30.00,14,2,14,0.46
2013-8-25,88,83,76,78,75,73,89,78,66,30.21,30.06,12,1,12,1.14
2013-8-26,90,84,78,76,74,71,85,72,63,30.15,30.06,10,2,10,0.13
2013-8-27,84,80,76,76,73,70,90,80,67,30.09,30.00,10,0,10,0.23
2013-8-28,91,84,80,76,74,68,79,73,61,30.09,29.97,115,2,115,0.30
2013-8-29,92,84,76,78,75,68,88,74,60,30.06,29.97,8,1,8,0.53
2013-8-30,92,86,80,100,75,71,87,70,60,30.06,29.94,10,2,10,0.00
2013-8-31,90,83,78,76,73,70,84,73,63,30.03,29.94,11,1,11,0.02
2013-9-1,88,82,77,79,75,72,91,80,67,30.03,29.94,7,0,7,0.00
2013-9-2,91,81,77,80,75,69,92,82,65,30.06,29.97,11,1,11,0.03
2013-9-3,90,83,76,79,75,72,90,79,66,30.06,29.94,7,1,7,0.00
2013-9-4,87,84,82,78,76,74,81,76,72,30.09,29.94,115,1,115,0.01
2013-9-5,92,86,71,79,76,35,82,72,27,30.12,30.00,9,2,9,0.00
2013-9-6,94,87,83,78,76,21,80,70,58,30.09,29.94,10,2,10,0.00
2013-9-7,86,80,76,79,74,71,92,83,68,30.03,29.94,8,0,8,0.18
2013-9-8,88,81,75,80,75,72,95,81,66,30.00,29.88,5,0,5,0.06
2013-9-9,92,84,78,76,74,71,86,71,56,30.03,29.91,10,2,10,0.00
2013-9-10,89,85,82,76,74,72,79,70,62,30.09,29.97,12,4,12,0.10
2013-9-11,84,82,78,78,74,72,89,78,69,30.09,29.97,10,3,10,0.65
2013-9-12,86,82,80,77,75,73,88,79,74,30.03,29.91,6,1,6,0.01
2013-9-13,92,84,77,79,75,71,93,77,56,29.94,29.83,8,2,8,0.00
2013-9-14,93,86,79,77,74,72,87,69,54,30.03,29.83,8,2,8,0.00
2013-9-15,87,84,82,78,75,69,84,76,66,30.09,29.94,13,4,15,0.03
2013-9-16,86,82,81,78,76,72,86,81,71,30.09,29.97,18,5,19,0.87
2013-9-17,82,81,78,77,76,73,91,85,79,30.06,29.94,13,4,13,0.56
2013-9-18,88,82,77,79,75,72,89,80,67,30.06,29.94,8,1,8,0.21
2013-9-19,89,82,76,77,74,70,92,77,66,30.03,29.94,14,4,14,0.00
2013-9-20,89,83,80,71,69,66,73,62,48,30.03,29.94,9,3,9,0.01
2013-9-21,91,85,80,73,70,68,70,63,53,29.97,29.83,8,3,8,0.00
2013-9-22,92,85,79,77,74,70,86,71,59,29.91,29.80,10,3,10,0.00
2013-9-23,87,82,79,78,76,72,92,83,71,30.03,29.88,26,1,26,0.17
2013-9-24,88,82,77,80,76,71,93,84,74,30.03,29.88,15,3,15,0.11
2013-9-25,88,81,77,78,74,71,87,79,62,29.94,29.83,16,2,16,0.16
2013-9-26,87,81,78,80,77,74,93,87,73,29.91,29.83,18,3,18,0.42
2013-9-27,88,81,75,77,74,69,96,79,58,29.94,29.83,9,2,9,0.00
2013-9-28,88,82,76,76,72,68,90,73,58,30.00,29.88,11,3,11,0.05
2013-9-29,90,84,80,70,68,66,67,58,47,30.03,29.91,10,3,10,0.00
2013-9-30,91,84,80,70,68,65,64,57,47,30.06,29.94,7,2,7,0.00
2013-10-1,89,85,82,73,70,67,65,61,52,30.06,29.97,13,4,13,0.00
2013-10-2,88,84,81,73,71,70,71,65,57,30.09,29.97,57,6,58,0.00
2013-10-3,89,84,81,74,71,68,76,66,55,30.09,29.94,10,3,10,0.00
2013-10-4,90,84,81,71,69,66,69,61,50,30.12,30.00,7,2,7,0.00
2013-10-5,90,84,77,72,68,65,72,60,49,30.06,29.94,115,2,115,0.00
2013-10-6,91,85,81,74,70,67,70,62,51,30.00,29.88,7,1,7,0.00
2013-10-7,89,81,77,76,71,67,80,71,58,29.94,29.83,21,3,21,0.02
2013-10-8,88,82,77,77,73,68,92,76,59,29.97,29.85,12,4,12,0.00
2013-10-9,84,78,74,76,72,68,89,81,70,30.03,29.94,13,6,13,0.00
2013-10-10,87,81,74,75,71,66,91,75,57,30.06,29.94,12,6,12,0.00
2013-10-11,87,82,76,69,65,61,71,58,47,30.06,29.94,12,5,12,0.00
2013-10-12,88,82,74,66,64,60,71,56,46,30.06,29.94,57,4,58,0.00
2013-10-13,86,81,76,69,63,58,74,56,42,30.09,30.00,13,5,13,0.00
2013-10-14,87,81,34,69,65,23,75,59,47,30.06,29.94,10,5,10,0.00
2013-10-15,87,81,73,72,68,65,85,66,55,30.00,29.88,10,5,10,0.00
2013-10-16,86,81,76,71,67,30,75,63,53,30.00,29.91,57,4,58,0.00
2013-10-17,88,83,77,71,68,36,75,63,51,30.03,29.91,9,4,9,0.16
2013-10-18,89,83,78,72,70,67,75,64,54,30.03,29.91,10,4,10,0.16
2013-10-19,90,84,80,74,71,68,70,65,58,30.00,29.88,13,5,13,0.00
2013-10-20,89,83,80,77,74,70,84,73,65,30.00,29.88,10,3,10,0.00
2013-10-21,91,85,81,77,74,71,78,70,61,30.03,29.94,12,5,12,0.00
2013-10-22,90,84,81,77,74,70,79,71,64,30.00,29.85,13,5,13,0.00
2013-10-23,86,81,78,76,72,66,89,74,59,29.97,29.83,13,5,13,0.01
2013-10-24,80,77,74,66,63,57,71,61,49,30.15,29.97,13,6,13,0.00
2013-10-25,81,78,71,65,60,57,68,54,47,30.18,30.06,19,7,19,0.00
2013-10-26,85,79,74,61,58,55,56,49,41,30.18,30.06,58,5,58,0.00
2013-10-27,84,76,69,64,59,56,65,55,44,30.15,30.06,12,4,12,0.00
2013-10-28,85,80,76,64,60,57,59,51,40,30.18,30.06,12,6,12,0.00
2013-10-29,85,81,78,67,63,60,64,56,48,30.21,30.09,15,8,15,0.00
2013-10-30,126,82,34,100,65,-8,96,56,16,30.21,30.12,18,9,18,0.00
2013-10-31,126,81,78,71,68,63,71,65,57,30.18,30.03,14,8,14,0.04
2013-11-1,87,82,79,74,71,68,73,69,63,30.03,29.91,20,6,20,0.00
2013-11-2,88,80,74,72,68,61,88,69,44,30.00,29.83,15,4,15,0.00
2013-11-3,81,75,70,64,61,56,76,61,47,30.06,29.91,18,9,18,0.00
2013-11-4,80,77,76,67,62,53,69,59,43,30.12,30.03,22,12,22,0.01
2013-11-5,82,79,77,70,67,63,77,68,61,30.15,30.03,23,13,23,0.06
2013-11-6,85,80,77,69,67,65,74,66,53,30.09,30.00,20,8,20,0.00
2013-11-7,84,78,72,72,68,64,88,74,63,30.06,29.94,10,5,10,0.00
2013-11-8,84,78,73,73,70,67,89,78,61,30.06,29.91,18,7,18,0.10
2013-11-9,79,77,75,74,72,70,92,83,77,30.15,29.91,21,12,21,0.03
2013-11-10,82,79,77,72,69,66,82,72,65,30.18,30.06,15,8,15,0.00
2013-11-11,84,80,77,70,67,64,74,66,58,30.15,30.06,14,8,14,0.00
2013-11-12,84,80,75,68,65,62,70,62,52,30.12,29.91,9,5,9,0.00
2013-11-13,76,73,71,65,62,53,77,67,55,30.27,30.03,22,10,22,0.04
2013-11-14,77,73,71,59,55,52,60,52,46,30.27,30.18,20,12,20,0.00
2013-11-15,81,77,74,67,65,59,70,66,59,30.18,30.06,19,10,19,0.00
2013-11-16,82,79,77,72,68,65,80,68,64,30.15,30.03,17,7,17,0.02
2013-11-17,85,81,78,72,70,68,79,70,61,30.12,30.03,18,7,18,0.00
2013-11-18,84,80,76,72,70,68,83,72,65,30.06,29.91,15,3,13,0.00
2013-11-19,83,76,74,74,71,68,94,83,70,29.97,29.88,14,3,14,1.16
2013-11-20,83,77,72,76,73,70,96,86,73,30.09,29.94,10,4,10,0.01
2013-11-21,79,77,73,74,72,70,91,85,79,30.18,30.06,18,7,18,1.56
2013-11-22,82,78,76,72,70,67,82,75,65,30.21,30.09,21,10,21,0.00
2013-11-23,83,79,76,71,69,67,83,73,64,30.12,30.00,15,7,15,0.01
2013-11-24,80,75,71,69,66,62,87,75,62,30.18,30.00,23,8,23,0.38
2013-11-25,76,74,72,68,63,59,80,70,63,30.24,30.09,23,14,23,0.00
2013-11-26,82,78,74,74,72,68,89,83,77,30.09,29.83,22,10,22,0.16
2013-11-27,79,73,60,75,64,49,95,75,47,30.15,29.83,20,8,20,0.45
2013-11-28,73,61,51,60,51,45,83,70,50,30.27,30.12,18,9,18,0.00
2013-11-29,75,72,65,61,57,52,70,58,51,30.30,30.18,17,9,17,0.00
2013-11-30,75,72,64,70,62,56,91,72,61,30.24,30.12,23,8,23,0.49
2013-12-1,80,73,69,68,66,59,93,78,63,30.15,29.94,13,5,13,2.34
2013-12-2,73,69,66,68,64,59,98,87,65,29.97,29.83,15,5,15,0.03
2013-12-3,79,71,64,66,64,61,93,78,63,30.06,29.91,8,2,8,0.00
2013-12-4,82,75,68,69,66,63,88,74,61,30.15,30.03,11,3,11,0.00
2013-12-5,83,78,75,70,67,64,72,69,66,30.21,30.09,17,7,17,0.00
2013-12-6,83,79,76,70,68,65,77,69,61,30.21,30.12,16,8,16,0.00
2013-12-7,84,78,73,70,68,65,79,71,60,30.27,30.18,14,5,14,0.04
2013-12-8,83,79,75,70,68,65,80,69,60,30.24,30.15,20,8,20,0.00
2013-12-9,84,79,77,69,67,64,75,67,56,30.24,30.15,18,8,18,0.00
2013-12-10,85,80,77,73,70,67,78,72,66,30.21,30.09,14,5,14,0.00
2013-12-11,84,79,74,73,70,68,89,75,64,30.24,30.12,7,3,7,0.00
2013-12-12,79,74,72,71,66,58,93,75,59,30.27,30.15,18,7,18,0.00
2013-12-13,77,74,71,68,61,54,78,64,54,30.24,30.12,20,10,20,0.00
2013-12-14,82,78,75,72,70,67,78,75,68,30.15,30.00,21,9,21,0.00
2013-12-15,82,78,72,73,70,68,85,78,68,30.09,29.94,17,5,17,0.00
2013-12-16,73,69,64,68,60,56,85,73,63,30.18,30.06,13,7,13,0.00
2013-12-17,75,69,61,66,58,54,92,72,54,30.21,30.12,13,6,13,0.00
2013-12-18,74,68,63,58,55,52,83,65,50,30.27,30.15,14,6,14,0.00
2013-12-19,77,73,65,59,56,54,70,56,48,30.27,30.18,13,6,13,0.00
2013-12-20,79,77,74,67,64,58,69,64,57,30.24,29.91,14,5,14,0.00
2013-12-21,83,79,77,72,70,66,80,74,67,30.18,30.09,20,10,20,0.00
2013-12-22,84,80,77,73,71,70,81,76,68,30.21,30.09,22,10,22,0.00
2013-12-23,84,79,76,74,71,69,83,77,68,30.24,30.12,17,7,17,0.00
2013-12-24,80,74,70,73,68,62,94,82,68,30.21,30.12,20,5,20,0.00
2013-12-25,76,74,72,67,65,63,84,74,66,30.21,30.12,20,10,20,0.10
2013-12-26,79,76,74,70,68,66,81,78,71,30.21,30.06,16,8,16,0.00
2013-12-27,80,77,75,70,68,67,80,75,70,30.24,30.09,17,8,17,0.00
2013-12-28,79,77,75,73,70,67,88,80,74,30.21,30.06,17,9,17,0.06
2013-12-29,81,78,75,75,73,72,92,85,79,30.09,29.94,20,8,20,0.00
2013-12-30,77,74,70,73,70,65,97,90,81,30.18,30.00,11,4,11,0.00
2013-12-31,77,73,69,69,64,60,88,73,62,30.27,30.12,17,8,17,0.00
2014-1-1,80,76,74,73,69,62,84,78,67,30.21,30.06,17,9,17,0.02
2014-1-2,83,78,75,72,69,63,84,73,59,30.09,29.88,18,7,18,0.00